sensor_id;sensor_type;location;lat;lon;timestamp;temperature;humidity
9915;DHT22;4996;48.746;9.174;2023-05-20T00:00:24;13.90;99.90
9915;DHT22;4996;48.746;9.174;2023-05-20T00:02:49;13.90;99.90
9915;DHT22;4996;48.746;9.174;2023-05-20T00:05:15;13.90;99.90
9915;DHT22;4996;48.746;9.174;2023-05-20T00:07:41;13.90;99.90
9915;DHT22;4996;48.746;9.174;2023-05-20T00:10:06;13.90;99.90
9915;DHT22;4996;48.746;9.174;2023-05-20T00:12:32;13.80;99.90
9915;DHT22;4996;48.746;9.174;2023-05-20T00:14:59;13.80;99.90
9915;DHT22;4996;48.746;9.174;2023-05-20T00:17:25;13.80;99.90
9915;DHT22;4996;48.746;9.174;2023-05-20T00:19:52;13.70;99.90
9915;DHT22;4996;48.746;9.174;2023-05-20T00:22:18;13.80;99.90
9915;DHT22;4996;48.746;9.174;2023-05-20T00:24:43;13.80;99.90
9915;DHT22;4996;48.746;9.174;2023-05-20T00:27:09;13.80;99.90
9915;DHT22;4996;48.746;9.174;2023-05-20T00:29:34;13.80;99.90
9915;DHT22;4996;48.746;9.174;2023-05-20T00:32:00;13.80;99.90
9915;DHT22;4996;48.746;9.174;2023-05-20T00:34:26;13.80;99.90
9915;DHT22;4996;48.746;9.174;2023-05-20T00:36:51;13.80;99.90
9915;DHT22;4996;48.746;9.174;2023-05-20T00:39:17;13.70;99.90
9915;DHT22;4996;48.746;9.174;2023-05-20T00:41:42;13.70;99.90
9915;DHT22;4996;48.746;9.174;2023-05-20T00:44:08;13.70;99.90
9915;DHT22;4996;48.746;9.174;2023-05-20T00:46:34;13.70;99.90
9915;DHT22;4996;48.746;9.174;2023-05-20T00:49:00;13.70;99.90
9915;DHT22;4996;48.746;9.174;2023-05-20T00:51:26;13.80;99.90
9915;DHT22;4996;48.746;9.174;2023-05-20T00:53:52;13.80;99.90
9915;DHT22;4996;48.746;9.174;2023-05-20T00:56:17;13.90;99.90
9915;DHT22;4996;48.746;9.174;2023-05-20T00:58:43;13.90;99.90
9915;DHT22;4996;48.746;9.174;2023-05-20T01:01:09;13.80;99.90
9915;DHT22;4996;48.746;9.174;2023-05-20T01:03:34;13.70;99.90
9915;DHT22;4996;48.746;9.174;2023-05-20T01:06:00;13.70;99.90
9915;DHT22;4996;48.746;9.174;2023-05-20T01:08:26;13.80;99.90
9915;DHT22;4996;48.746;9.174;2023-05-20T01:11:21;13.90;99.90
9915;DHT22;4996;48.746;9.174;2023-05-20T01:13:53;13.80;99.90
9915;DHT22;4996;48.746;9.174;2023-05-20T01:16:21;13.80;99.90
9915;DHT22;4996;48.746;9.174;2023-05-20T01:18:49;13.70;99.90
9915;DHT22;4996;48.746;9.174;2023-05-20T01:21:16;13.70;99.90
9915;DHT22;4996;48.746;9.174;2023-05-20T01:23:42;13.70;99.90
9915;DHT22;4996;48.746;9.174;2023-05-20T01:26:08;13.70;99.90
9915;DHT22;4996;48.746;9.174;2023-05-20T01:28:41;13.70;99.90
9915;DHT22;4996;48.746;9.174;2023-05-20T01:31:14;13.70;99.90
9915;DHT22;4996;48.746;9.174;2023-05-20T01:33:43;13.60;99.90
9915;DHT22;4996;48.746;9.174;2023-05-20T01:36:09;13.60;99.90
9915;DHT22;4996;48.746;9.174;2023-05-20T01:38:35;13.60;99.90
9915;DHT22;4996;48.746;9.174;2023-05-20T01:41:03;13.60;99.90
9915;DHT22;4996;48.746;9.174;2023-05-20T01:43:29;13.50;99.90
9915;DHT22;4996;48.746;9.174;2023-05-20T01:45:55;13.50;99.90
9915;DHT22;4996;48.746;9.174;2023-05-20T01:48:21;13.40;99.90
9915;DHT22;4996;48.746;9.174;2023-05-20T01:50:46;13.40;99.90
9915;DHT22;4996;48.746;9.174;2023-05-20T01:53:12;13.50;99.90
9915;DHT22;4996;48.746;9.174;2023-05-20T01:55:38;13.50;99.90
9915;DHT22;4996;48.746;9.174;2023-05-20T01:58:03;13.60;99.90
9915;DHT22;4996;48.746;9.174;2023-05-20T02:00:31;13.60;99.90
9915;DHT22;4996;48.746;9.174;2023-05-20T02:02:58;13.60;99.90
9915;DHT22;4996;48.746;9.174;2023-05-20T02:05:23;13.70;99.90
9915;DHT22;4996;48.746;9.174;2023-05-20T02:07:49;13.60;99.90
9915;DHT22;4996;48.746;9.174;2023-05-20T02:10:14;13.70;99.90
9915;DHT22;4996;48.746;9.174;2023-05-20T02:12:41;13.60;99.90
9915;DHT22;4996;48.746;9.174;2023-05-20T02:15:07;13.60;99.90
9915;DHT22;4996;48.746;9.174;2023-05-20T02:17:32;13.40;99.90
9915;DHT22;4996;48.746;9.174;2023-05-20T02:19:58;13.40;99.90
9915;DHT22;4996;48.746;9.174;2023-05-20T02:22:23;13.40;99.90
9915;DHT22;4996;48.746;9.174;2023-05-20T02:24:49;13.30;99.90
9915;DHT22;4996;48.746;9.174;2023-05-20T02:27:14;13.10;99.90
9915;DHT22;4996;48.746;9.174;2023-05-20T02:29:42;13.20;99.90
9915;DHT22;4996;48.746;9.174;2023-05-20T02:32:07;13.10;99.90
9915;DHT22;4996;48.746;9.174;2023-05-20T02:34:33;13.00;99.90
9915;DHT22;4996;48.746;9.174;2023-05-20T02:36:59;13.00;99.90
9915;DHT22;4996;48.746;9.174;2023-05-20T02:39:24;12.90;99.90
9915;DHT22;4996;48.746;9.174;2023-05-20T02:41:50;12.90;99.90
9915;DHT22;4996;48.746;9.174;2023-05-20T02:44:15;12.90;99.90
9915;DHT22;4996;48.746;9.174;2023-05-20T02:46:41;13.00;99.90
9915;DHT22;4996;48.746;9.174;2023-05-20T02:49:06;12.90;99.90
9915;DHT22;4996;48.746;9.174;2023-05-20T02:51:32;12.70;99.90
9915;DHT22;4996;48.746;9.174;2023-05-20T02:53:57;12.90;99.90
9915;DHT22;4996;48.746;9.174;2023-05-20T02:56:23;12.90;99.90
9915;DHT22;4996;48.746;9.174;2023-05-20T02:58:49;12.80;99.90
9915;DHT22;4996;48.746;9.174;2023-05-20T03:01:15;12.80;99.90
9915;DHT22;4996;48.746;9.174;2023-05-20T03:03:41;12.70;99.90
9915;DHT22;4996;48.746;9.174;2023-05-20T03:06:07;12.90;99.90
9915;DHT22;4996;48.746;9.174;2023-05-20T03:08:32;12.80;99.90
9915;DHT22;4996;48.746;9.174;2023-05-20T03:11:01;12.70;99.90
9915;DHT22;4996;48.746;9.174;2023-05-20T03:13:27;12.80;99.90
9915;DHT22;4996;48.746;9.174;2023-05-20T03:15:53;12.80;99.90
9915;DHT22;4996;48.746;9.174;2023-05-20T03:18:19;12.70;99.90
9915;DHT22;4996;48.746;9.174;2023-05-20T03:20:45;12.70;99.90
9915;DHT22;4996;48.746;9.174;2023-05-20T03:23:11;12.70;99.90
9915;DHT22;4996;48.746;9.174;2023-05-20T03:25:37;12.70;99.90
9915;DHT22;4996;48.746;9.174;2023-05-20T03:28:03;12.70;99.90
9915;DHT22;4996;48.746;9.174;2023-05-20T03:30:30;12.60;99.90
9915;DHT22;4996;48.746;9.174;2023-05-20T03:32:56;12.50;99.90
9915;DHT22;4996;48.746;9.174;2023-05-20T03:35:22;12.40;99.90
9915;DHT22;4996;48.746;9.174;2023-05-20T03:37:48;12.50;99.90
9915;DHT22;4996;48.746;9.174;2023-05-20T03:40:15;12.50;99.90
9915;DHT22;4996;48.746;9.174;2023-05-20T03:42:41;12.60;99.90
9915;DHT22;4996;48.746;9.174;2023-05-20T03:45:07;12.50;99.90
9915;DHT22;4996;48.746;9.174;2023-05-20T03:47:33;12.50;99.90
9915;DHT22;4996;48.746;9.174;2023-05-20T03:49:58;12.60;99.90
9915;DHT22;4996;48.746;9.174;2023-05-20T03:52:24;12.60;99.90
9915;DHT22;4996;48.746;9.174;2023-05-20T03:54:49;12.60;99.90
9915;DHT22;4996;48.746;9.174;2023-05-20T03:57:15;12.60;99.90
9915;DHT22;4996;48.746;9.174;2023-05-20T03:59:40;12.70;99.90
9915;DHT22;4996;48.746;9.174;2023-05-20T04:02:06;12.70;99.90
9915;DHT22;4996;48.746;9.174;2023-05-20T04:04:32;12.70;99.90
9915;DHT22;4996;48.746;9.174;2023-05-20T04:06:58;12.70;99.90
9915;DHT22;4996;48.746;9.174;2023-05-20T04:09:27;12.70;99.90
9915;DHT22;4996;48.746;9.174;2023-05-20T04:11:53;12.70;99.90
9915;DHT22;4996;48.746;9.174;2023-05-20T04:14:18;12.70;99.90
9915;DHT22;4996;48.746;9.174;2023-05-20T04:16:44;12.70;99.90
9915;DHT22;4996;48.746;9.174;2023-05-20T04:19:10;12.80;99.90
9915;DHT22;4996;48.746;9.174;2023-05-20T04:21:36;12.80;99.90
9915;DHT22;4996;48.746;9.174;2023-05-20T04:24:01;12.90;99.90
9915;DHT22;4996;48.746;9.174;2023-05-20T04:26:27;13.00;99.90
9915;DHT22;4996;48.746;9.174;2023-05-20T04:28:53;13.10;99.90
9915;DHT22;4996;48.746;9.174;2023-05-20T04:31:19;13.10;99.90
9915;DHT22;4996;48.746;9.174;2023-05-20T04:33:53;13.20;99.90
9915;DHT22;4996;48.746;9.174;2023-05-20T04:36:19;13.10;99.90
9915;DHT22;4996;48.746;9.174;2023-05-20T04:38:45;13.10;99.90
9915;DHT22;4996;48.746;9.174;2023-05-20T04:41:11;13.20;99.90
9915;DHT22;4996;48.746;9.174;2023-05-20T04:43:36;13.20;99.90
9915;DHT22;4996;48.746;9.174;2023-05-20T04:46:04;13.20;99.90
9915;DHT22;4996;48.746;9.174;2023-05-20T04:48:30;13.20;99.90
9915;DHT22;4996;48.746;9.174;2023-05-20T04:50:56;13.00;99.90
9915;DHT22;4996;48.746;9.174;2023-05-20T04:53:22;13.00;99.90
9915;DHT22;4996;48.746;9.174;2023-05-20T04:55:47;13.00;99.90
9915;DHT22;4996;48.746;9.174;2023-05-20T04:58:14;12.90;99.90
9915;DHT22;4996;48.746;9.174;2023-05-20T05:00:42;12.80;99.90
9915;DHT22;4996;48.746;9.174;2023-05-20T05:03:08;13.10;99.90
9915;DHT22;4996;48.746;9.174;2023-05-20T05:05:34;13.20;99.90
9915;DHT22;4996;48.746;9.174;2023-05-20T05:08:04;13.30;99.90
9915;DHT22;4996;48.746;9.174;2023-05-20T05:10:30;13.30;99.90
9915;DHT22;4996;48.746;9.174;2023-05-20T05:12:56;13.40;99.90
9915;DHT22;4996;48.746;9.174;2023-05-20T05:15:21;13.50;99.90
9915;DHT22;4996;48.746;9.174;2023-05-20T05:17:47;13.60;99.90
9915;DHT22;4996;48.746;9.174;2023-05-20T05:20:13;13.50;99.90
9915;DHT22;4996;48.746;9.174;2023-05-20T05:22:38;13.70;99.90
9915;DHT22;4996;48.746;9.174;2023-05-20T05:25:06;13.70;99.90
9915;DHT22;4996;48.746;9.174;2023-05-20T05:27:32;13.60;99.90
9915;DHT22;4996;48.746;9.174;2023-05-20T05:29:58;13.80;99.90
9915;DHT22;4996;48.746;9.174;2023-05-20T05:32:23;13.70;99.90
9915;DHT22;4996;48.746;9.174;2023-05-20T05:34:49;13.70;99.90
9915;DHT22;4996;48.746;9.174;2023-05-20T05:37:14;13.80;99.90
9915;DHT22;4996;48.746;9.174;2023-05-20T05:39:40;13.90;99.90
9915;DHT22;4996;48.746;9.174;2023-05-20T05:42:06;13.90;99.90
9915;DHT22;4996;48.746;9.174;2023-05-20T05:44:31;13.80;99.90
9915;DHT22;4996;48.746;9.174;2023-05-20T05:46:57;14.10;99.90
9915;DHT22;4996;48.746;9.174;2023-05-20T05:49:22;14.00;99.90
9915;DHT22;4996;48.746;9.174;2023-05-20T05:51:49;14.10;99.90
9915;DHT22;4996;48.746;9.174;2023-05-20T05:54:14;14.00;99.90
9915;DHT22;4996;48.746;9.174;2023-05-20T05:56:40;14.10;99.90
9915;DHT22;4996;48.746;9.174;2023-05-20T05:59:05;14.10;99.90
9915;DHT22;4996;48.746;9.174;2023-05-20T06:01:31;14.30;99.90
9915;DHT22;4996;48.746;9.174;2023-05-20T06:03:57;14.40;99.90
9915;DHT22;4996;48.746;9.174;2023-05-20T06:06:22;14.60;99.90
9915;DHT22;4996;48.746;9.174;2023-05-20T06:08:48;14.80;99.90
9915;DHT22;4996;48.746;9.174;2023-05-20T06:11:13;14.80;99.90
9915;DHT22;4996;48.746;9.174;2023-05-20T06:13:39;14.80;99.90
9915;DHT22;4996;48.746;9.174;2023-05-20T06:16:04;15.00;99.90
9915;DHT22;4996;48.746;9.174;2023-05-20T06:18:30;15.10;99.90
9915;DHT22;4996;48.746;9.174;2023-05-20T06:20:56;15.30;99.90
9915;DHT22;4996;48.746;9.174;2023-05-20T06:23:22;15.30;99.90
9915;DHT22;4996;48.746;9.174;2023-05-20T06:25:49;15.50;99.90
9915;DHT22;4996;48.746;9.174;2023-05-20T06:28:14;15.50;99.90
9915;DHT22;4996;48.746;9.174;2023-05-20T06:30:40;15.30;99.90
9915;DHT22;4996;48.746;9.174;2023-05-20T06:33:06;15.40;99.90
9915;DHT22;4996;48.746;9.174;2023-05-20T06:35:32;15.60;99.90
9915;DHT22;4996;48.746;9.174;2023-05-20T06:38:00;15.80;99.90
9915;DHT22;4996;48.746;9.174;2023-05-20T06:40:26;16.00;99.90
9915;DHT22;4996;48.746;9.174;2023-05-20T06:42:52;16.00;99.90
9915;DHT22;4996;48.746;9.174;2023-05-20T06:45:18;16.20;99.90
9915;DHT22;4996;48.746;9.174;2023-05-20T06:47:44;16.00;99.90
9915;DHT22;4996;48.746;9.174;2023-05-20T06:50:10;16.00;99.90
9915;DHT22;4996;48.746;9.174;2023-05-20T06:52:36;16.20;99.90
9915;DHT22;4996;48.746;9.174;2023-05-20T06:55:03;16.20;99.90
9915;DHT22;4996;48.746;9.174;2023-05-20T06:57:29;16.20;99.90
9915;DHT22;4996;48.746;9.174;2023-05-20T06:59:55;16.20;99.90
9915;DHT22;4996;48.746;9.174;2023-05-20T07:02:21;16.10;99.90
9915;DHT22;4996;48.746;9.174;2023-05-20T07:04:47;16.20;99.90
9915;DHT22;4996;48.746;9.174;2023-05-20T07:07:12;16.40;99.90
9915;DHT22;4996;48.746;9.174;2023-05-20T07:09:38;16.40;99.90
9915;DHT22;4996;48.746;9.174;2023-05-20T07:12:03;16.50;99.90
9915;DHT22;4996;48.746;9.174;2023-05-20T07:14:29;16.60;99.90
9915;DHT22;4996;48.746;9.174;2023-05-20T07:16:54;16.70;99.90
9915;DHT22;4996;48.746;9.174;2023-05-20T07:19:20;16.70;99.90
9915;DHT22;4996;48.746;9.174;2023-05-20T07:21:45;16.50;99.90
9915;DHT22;4996;48.746;9.174;2023-05-20T07:24:11;16.70;99.90
9915;DHT22;4996;48.746;9.174;2023-05-20T07:26:37;17.10;99.90
9915;DHT22;4996;48.746;9.174;2023-05-20T07:29:03;17.30;99.90
9915;DHT22;4996;48.746;9.174;2023-05-20T07:31:29;17.40;99.90
9915;DHT22;4996;48.746;9.174;2023-05-20T07:33:55;17.50;99.90
9915;DHT22;4996;48.746;9.174;2023-05-20T07:36:21;17.60;99.90
9915;DHT22;4996;48.746;9.174;2023-05-20T07:38:46;17.70;99.90
9915;DHT22;4996;48.746;9.174;2023-05-20T07:41:12;17.80;99.90
9915;DHT22;4996;48.746;9.174;2023-05-20T07:43:37;17.60;99.90
9915;DHT22;4996;48.746;9.174;2023-05-20T07:46:03;17.30;99.90
9915;DHT22;4996;48.746;9.174;2023-05-20T07:48:28;17.50;99.90
9915;DHT22;4996;48.746;9.174;2023-05-20T07:50:54;17.40;99.90
9915;DHT22;4996;48.746;9.174;2023-05-20T07:53:23;17.50;99.90
9915;DHT22;4996;48.746;9.174;2023-05-20T07:55:49;17.60;99.90
9915;DHT22;4996;48.746;9.174;2023-05-20T07:58:14;18.00;99.90
9915;DHT22;4996;48.746;9.174;2023-05-20T08:00:40;17.70;99.90
9915;DHT22;4996;48.746;9.174;2023-05-20T08:03:06;17.50;99.90
9915;DHT22;4996;48.746;9.174;2023-05-20T08:05:32;17.60;99.90
9915;DHT22;4996;48.746;9.174;2023-05-20T08:07:57;17.80;99.90
9915;DHT22;4996;48.746;9.174;2023-05-20T08:10:23;17.90;99.90
9915;DHT22;4996;48.746;9.174;2023-05-20T08:12:48;18.10;99.90
9915;DHT22;4996;48.746;9.174;2023-05-20T08:15:14;17.90;99.90
9915;DHT22;4996;48.746;9.174;2023-05-20T08:17:40;17.80;99.90
9915;DHT22;4996;48.746;9.174;2023-05-20T08:20:05;17.70;99.90
9915;DHT22;4996;48.746;9.174;2023-05-20T08:22:32;17.90;99.90
9915;DHT22;4996;48.746;9.174;2023-05-20T08:24:58;18.00;99.90
9915;DHT22;4996;48.746;9.174;2023-05-20T08:27:23;18.20;99.90
9915;DHT22;4996;48.746;9.174;2023-05-20T08:29:49;18.20;99.90
9915;DHT22;4996;48.746;9.174;2023-05-20T08:32:14;18.20;99.90
9915;DHT22;4996;48.746;9.174;2023-05-20T08:34:40;18.30;99.90
9915;DHT22;4996;48.746;9.174;2023-05-20T08:37:07;18.30;99.90
9915;DHT22;4996;48.746;9.174;2023-05-20T08:39:32;18.20;99.90
9915;DHT22;4996;48.746;9.174;2023-05-20T08:41:58;18.00;99.90
9915;DHT22;4996;48.746;9.174;2023-05-20T08:44:25;18.20;99.90
9915;DHT22;4996;48.746;9.174;2023-05-20T08:46:52;18.20;99.90
9915;DHT22;4996;48.746;9.174;2023-05-20T08:49:19;18.00;99.90
9915;DHT22;4996;48.746;9.174;2023-05-20T08:51:45;17.80;99.90
9915;DHT22;4996;48.746;9.174;2023-05-20T08:54:12;18.00;99.90
9915;DHT22;4996;48.746;9.174;2023-05-20T08:56:39;18.20;99.90
9915;DHT22;4996;48.746;9.174;2023-05-20T08:59:07;18.50;99.90
9915;DHT22;4996;48.746;9.174;2023-05-20T09:01:36;18.50;99.90
9915;DHT22;4996;48.746;9.174;2023-05-20T09:04:04;18.90;99.90
9915;DHT22;4996;48.746;9.174;2023-05-20T09:06:29;19.10;99.90
9915;DHT22;4996;48.746;9.174;2023-05-20T09:09:06;19.20;99.90
9915;DHT22;4996;48.746;9.174;2023-05-20T09:11:32;19.50;99.90
9915;DHT22;4996;48.746;9.174;2023-05-20T09:13:58;19.90;99.90
9915;DHT22;4996;48.746;9.174;2023-05-20T09:16:24;20.40;99.90
9915;DHT22;4996;48.746;9.174;2023-05-20T09:18:54;20.60;99.90
9915;DHT22;4996;48.746;9.174;2023-05-20T09:21:27;20.80;99.90
9915;DHT22;4996;48.746;9.174;2023-05-20T09:23:53;20.70;99.90
9915;DHT22;4996;48.746;9.174;2023-05-20T09:26:22;21.00;99.90
9915;DHT22;4996;48.746;9.174;2023-05-20T09:28:48;21.20;99.90
9915;DHT22;4996;48.746;9.174;2023-05-20T09:31:14;21.50;99.90
9915;DHT22;4996;48.746;9.174;2023-05-20T09:33:39;21.50;99.90
9915;DHT22;4996;48.746;9.174;2023-05-20T09:36:09;21.30;99.90
9915;DHT22;4996;48.746;9.174;2023-05-20T09:38:37;21.70;99.90
9915;DHT22;4996;48.746;9.174;2023-05-20T09:41:09;22.00;99.90
9915;DHT22;4996;48.746;9.174;2023-05-20T09:43:36;22.00;99.90
9915;DHT22;4996;48.746;9.174;2023-05-20T09:46:03;22.20;99.90
9915;DHT22;4996;48.746;9.174;2023-05-20T09:48:29;22.30;99.90
9915;DHT22;4996;48.746;9.174;2023-05-20T09:50:56;22.30;99.90
9915;DHT22;4996;48.746;9.174;2023-05-20T09:53:25;22.20;99.90
9915;DHT22;4996;48.746;9.174;2023-05-20T09:55:51;21.90;99.90
9915;DHT22;4996;48.746;9.174;2023-05-20T09:58:19;22.00;99.90
9915;DHT22;4996;48.746;9.174;2023-05-20T10:00:45;22.10;99.90
9915;DHT22;4996;48.746;9.174;2023-05-20T10:03:10;22.00;99.90
9915;DHT22;4996;48.746;9.174;2023-05-20T10:05:40;22.10;99.90
9915;DHT22;4996;48.746;9.174;2023-05-20T10:08:30;22.00;99.90
9915;DHT22;4996;48.746;9.174;2023-05-20T10:11:24;21.70;99.90
9915;DHT22;4996;48.746;9.174;2023-05-20T10:16:47;22.00;99.90
9915;DHT22;4996;48.746;9.174;2023-05-20T10:19:30;21.90;99.90
9915;DHT22;4996;48.746;9.174;2023-05-20T10:22:03;21.70;99.90
9915;DHT22;4996;48.746;9.174;2023-05-20T10:24:43;21.30;99.90
9915;DHT22;4996;48.746;9.174;2023-05-20T10:27:10;21.10;99.90
9915;DHT22;4996;48.746;9.174;2023-05-20T10:32:11;21.50;99.90
9915;DHT22;4996;48.746;9.174;2023-05-20T10:34:47;21.60;99.90
9915;DHT22;4996;48.746;9.174;2023-05-20T10:37:32;21.60;99.90
9915;DHT22;4996;48.746;9.174;2023-05-20T10:40:24;21.80;99.90
9915;DHT22;4996;48.746;9.174;2023-05-20T10:42:49;22.00;99.90
9915;DHT22;4996;48.746;9.174;2023-05-20T10:45:28;22.00;99.90
9915;DHT22;4996;48.746;9.174;2023-05-20T10:47:55;22.10;99.90
9915;DHT22;4996;48.746;9.174;2023-05-20T10:50:35;21.90;99.90
9915;DHT22;4996;48.746;9.174;2023-05-20T10:53:11;21.90;99.90
9915;DHT22;4996;48.746;9.174;2023-05-20T10:55:39;22.10;99.90
9915;DHT22;4996;48.746;9.174;2023-05-20T10:58:05;22.30;99.90
9915;DHT22;4996;48.746;9.174;2023-05-20T11:00:33;22.40;99.90
9915;DHT22;4996;48.746;9.174;2023-05-20T11:03:00;22.30;99.90
9915;DHT22;4996;48.746;9.174;2023-05-20T11:05:26;22.60;99.90
9915;DHT22;4996;48.746;9.174;2023-05-20T11:08:00;22.90;99.90
9915;DHT22;4996;48.746;9.174;2023-05-20T11:10:26;23.20;99.90
9915;DHT22;4996;48.746;9.174;2023-05-20T11:12:51;23.10;99.90
9915;DHT22;4996;48.746;9.174;2023-05-20T11:15:18;23.10;99.90
9915;DHT22;4996;48.746;9.174;2023-05-20T11:18:00;22.90;99.90
9915;DHT22;4996;48.746;9.174;2023-05-20T11:20:26;23.60;99.90
9915;DHT22;4996;48.746;9.174;2023-05-20T11:22:53;23.70;99.90
9915;DHT22;4996;48.746;9.174;2023-05-20T11:25:19;23.70;99.90
9915;DHT22;4996;48.746;9.174;2023-05-20T11:27:45;23.70;99.90
9915;DHT22;4996;48.746;9.174;2023-05-20T11:30:13;23.80;99.90
9915;DHT22;4996;48.746;9.174;2023-05-20T11:32:55;24.40;99.90
9915;DHT22;4996;48.746;9.174;2023-05-20T11:35:22;24.70;99.90
9915;DHT22;4996;48.746;9.174;2023-05-20T11:40:24;25.10;99.50
9915;DHT22;4996;48.746;9.174;2023-05-20T11:42:53;25.30;99.90
9915;DHT22;4996;48.746;9.174;2023-05-20T11:45:18;24.90;98.70
9915;DHT22;4996;48.746;9.174;2023-05-20T11:47:44;24.40;99.10
9915;DHT22;4996;48.746;9.174;2023-05-20T11:50:10;24.40;99.80
9915;DHT22;4996;48.746;9.174;2023-05-20T11:52:40;24.50;99.20
9915;DHT22;4996;48.746;9.174;2023-05-20T11:55:09;24.60;99.10
9915;DHT22;4996;48.746;9.174;2023-05-20T11:57:37;24.40;99.50
9915;DHT22;4996;48.746;9.174;2023-05-20T12:00:02;24.70;99.60
9915;DHT22;4996;48.746;9.174;2023-05-20T12:02:32;24.70;99.20
9915;DHT22;4996;48.746;9.174;2023-05-20T12:04:57;24.20;99.00
9915;DHT22;4996;48.746;9.174;2023-05-20T12:07:23;24.40;99.00
9915;DHT22;4996;48.746;9.174;2023-05-20T12:09:48;24.50;98.80
9915;DHT22;4996;48.746;9.174;2023-05-20T12:12:14;24.40;98.30
9915;DHT22;4996;48.746;9.174;2023-05-20T12:14:40;24.70;98.10
9915;DHT22;4996;48.746;9.174;2023-05-20T12:17:06;25.40;97.70
9915;DHT22;4996;48.746;9.174;2023-05-20T12:19:31;26.10;96.70
9915;DHT22;4996;48.746;9.174;2023-05-20T12:21:57;26.90;94.40
9915;DHT22;4996;48.746;9.174;2023-05-20T12:24:22;27.90;93.70
9915;DHT22;4996;48.746;9.174;2023-05-20T12:26:48;27.90;92.50
9915;DHT22;4996;48.746;9.174;2023-05-20T12:29:13;27.80;91.80
9915;DHT22;4996;48.746;9.174;2023-05-20T12:31:39;27.10;91.40
9915;DHT22;4996;48.746;9.174;2023-05-20T12:34:04;27.10;91.80
9915;DHT22;4996;48.746;9.174;2023-05-20T12:36:30;26.80;90.90
9915;DHT22;4996;48.746;9.174;2023-05-20T12:38:56;27.00;91.20
9915;DHT22;4996;48.746;9.174;2023-05-20T12:41:22;27.30;91.30
9915;DHT22;4996;48.746;9.174;2023-05-20T12:43:47;27.30;91.50
9915;DHT22;4996;48.746;9.174;2023-05-20T12:46:13;27.70;91.80
9915;DHT22;4996;48.746;9.174;2023-05-20T12:48:38;27.60;91.20
9915;DHT22;4996;48.746;9.174;2023-05-20T12:51:04;27.40;90.10
9915;DHT22;4996;48.746;9.174;2023-05-20T12:53:30;27.30;89.70
9915;DHT22;4996;48.746;9.174;2023-05-20T12:55:55;26.90;89.40
9915;DHT22;4996;48.746;9.174;2023-05-20T12:58:21;26.30;90.10
9915;DHT22;4996;48.746;9.174;2023-05-20T13:00:46;26.20;90.70
9915;DHT22;4996;48.746;9.174;2023-05-20T13:03:12;26.60;90.70
9915;DHT22;4996;48.746;9.174;2023-05-20T13:05:37;26.40;90.40
9915;DHT22;4996;48.746;9.174;2023-05-20T13:08:03;26.00;90.80
9915;DHT22;4996;48.746;9.174;2023-05-20T13:10:29;26.40;90.20
9915;DHT22;4996;48.746;9.174;2023-05-20T13:12:55;26.60;89.70
9915;DHT22;4996;48.746;9.174;2023-05-20T13:15:20;27.30;90.00
9915;DHT22;4996;48.746;9.174;2023-05-20T13:17:46;27.50;88.90
9915;DHT22;4996;48.746;9.174;2023-05-20T13:20:12;28.10;88.50
9915;DHT22;4996;48.746;9.174;2023-05-20T13:22:37;29.10;85.60
9915;DHT22;4996;48.746;9.174;2023-05-20T13:25:04;28.40;83.90
9915;DHT22;4996;48.746;9.174;2023-05-20T13:27:29;27.80;84.80
9915;DHT22;4996;48.746;9.174;2023-05-20T13:29:55;27.40;86.50
9915;DHT22;4996;48.746;9.174;2023-05-20T13:32:20;27.90;86.50
9915;DHT22;4996;48.746;9.174;2023-05-20T13:34:46;28.20;83.90
9915;DHT22;4996;48.746;9.174;2023-05-20T13:37:11;28.40;84.80
9915;DHT22;4996;48.746;9.174;2023-05-20T13:39:37;28.50;83.60
9915;DHT22;4996;48.746;9.174;2023-05-20T13:42:02;28.00;85.10
9915;DHT22;4996;48.746;9.174;2023-05-20T13:44:28;27.90;86.70
9915;DHT22;4996;48.746;9.174;2023-05-20T13:46:54;27.60;85.30
9915;DHT22;4996;48.746;9.174;2023-05-20T13:49:20;27.00;85.60
9915;DHT22;4996;48.746;9.174;2023-05-20T13:51:46;26.70;85.20
9915;DHT22;4996;48.746;9.174;2023-05-20T13:54:11;26.40;86.70
9915;DHT22;4996;48.746;9.174;2023-05-20T13:56:37;26.10;87.50
9915;DHT22;4996;48.746;9.174;2023-05-20T13:59:03;26.20;87.20
9915;DHT22;4996;48.746;9.174;2023-05-20T14:01:29;25.70;88.90
9915;DHT22;4996;48.746;9.174;2023-05-20T14:03:57;25.40;88.70
9915;DHT22;4996;48.746;9.174;2023-05-20T14:06:22;25.30;89.00
9915;DHT22;4996;48.746;9.174;2023-05-20T14:08:49;25.20;89.30
9915;DHT22;4996;48.746;9.174;2023-05-20T14:11:14;25.20;89.80
9915;DHT22;4996;48.746;9.174;2023-05-20T14:13:40;24.90;90.10
9915;DHT22;4996;48.746;9.174;2023-05-20T14:16:05;24.80;90.20
9915;DHT22;4996;48.746;9.174;2023-05-20T14:18:31;24.60;90.80
9915;DHT22;4996;48.746;9.174;2023-05-20T14:20:57;24.60;90.70
9915;DHT22;4996;48.746;9.174;2023-05-20T14:23:22;24.70;90.90
9915;DHT22;4996;48.746;9.174;2023-05-20T14:25:48;24.40;91.40
9915;DHT22;4996;48.746;9.174;2023-05-20T14:28:13;24.40;91.80
9915;DHT22;4996;48.746;9.174;2023-05-20T14:30:39;24.60;91.50
9915;DHT22;4996;48.746;9.174;2023-05-20T14:33:04;24.70;91.40
9915;DHT22;4996;48.746;9.174;2023-05-20T14:35:30;24.70;91.00
9915;DHT22;4996;48.746;9.174;2023-05-20T14:37:55;24.60;91.10
9915;DHT22;4996;48.746;9.174;2023-05-20T14:40:21;24.50;91.10
9915;DHT22;4996;48.746;9.174;2023-05-20T14:42:47;24.50;90.90
9915;DHT22;4996;48.746;9.174;2023-05-20T14:45:12;24.60;90.70
9915;DHT22;4996;48.746;9.174;2023-05-20T14:47:38;24.60;90.80
9915;DHT22;4996;48.746;9.174;2023-05-20T14:50:07;24.60;90.40
9915;DHT22;4996;48.746;9.174;2023-05-20T14:52:32;24.60;90.50
9915;DHT22;4996;48.746;9.174;2023-05-20T14:54:58;24.50;90.70
9915;DHT22;4996;48.746;9.174;2023-05-20T14:57:24;24.60;91.30
9915;DHT22;4996;48.746;9.174;2023-05-20T14:59:49;24.60;91.60
9915;DHT22;4996;48.746;9.174;2023-05-20T15:02:18;24.80;91.50
9915;DHT22;4996;48.746;9.174;2023-05-20T15:04:44;24.70;91.00
9915;DHT22;4996;48.746;9.174;2023-05-20T15:07:12;24.50;91.10
9915;DHT22;4996;48.746;9.174;2023-05-20T15:09:38;24.00;91.30
9915;DHT22;4996;48.746;9.174;2023-05-20T15:12:03;23.90;91.30
9915;DHT22;4996;48.746;9.174;2023-05-20T15:14:29;23.90;91.60
9915;DHT22;4996;48.746;9.174;2023-05-20T15:16:55;23.90;91.30
9915;DHT22;4996;48.746;9.174;2023-05-20T15:19:20;24.00;92.20
9915;DHT22;4996;48.746;9.174;2023-05-20T15:21:46;24.20;92.00
9915;DHT22;4996;48.746;9.174;2023-05-20T15:24:13;24.40;91.80
9915;DHT22;4996;48.746;9.174;2023-05-20T15:26:39;24.50;91.60
9915;DHT22;4996;48.746;9.174;2023-05-20T15:29:04;24.50;91.50
9915;DHT22;4996;48.746;9.174;2023-05-20T15:31:30;24.50;91.10
9915;DHT22;4996;48.746;9.174;2023-05-20T15:33:56;24.30;91.20
9915;DHT22;4996;48.746;9.174;2023-05-20T15:36:22;24.40;91.70
9915;DHT22;4996;48.746;9.174;2023-05-20T15:38:48;24.50;91.40
9915;DHT22;4996;48.746;9.174;2023-05-20T15:41:14;24.40;91.60
9915;DHT22;4996;48.746;9.174;2023-05-20T15:43:40;24.40;91.70
9915;DHT22;4996;48.746;9.174;2023-05-20T15:46:06;24.40;91.40
9915;DHT22;4996;48.746;9.174;2023-05-20T15:48:32;24.50;91.20
9915;DHT22;4996;48.746;9.174;2023-05-20T15:50:59;24.50;91.50
9915;DHT22;4996;48.746;9.174;2023-05-20T15:53:25;24.00;91.50
9915;DHT22;4996;48.746;9.174;2023-05-20T15:55:50;24.00;91.90
9915;DHT22;4996;48.746;9.174;2023-05-20T15:58:16;24.10;91.70
9915;DHT22;4996;48.746;9.174;2023-05-20T16:00:42;24.30;91.80
9915;DHT22;4996;48.746;9.174;2023-05-20T16:03:07;24.40;91.90
9915;DHT22;4996;48.746;9.174;2023-05-20T16:05:34;24.40;91.70